Time;durP1;ratioP1;P1;durP2;ratioP2;P2;SDS_P1;SDS_P2;PMS_P1;PMS_P2;Temp;Humidity;BMP_temperature;BMP_pressure;BME280_temperature;BME280_humidity;BME280_pressure;Samples;Min_cycle;Max_cycle;Signal;HPM_P1;HPM_P2
2023/08/27 00:00:15;;;;;;;4.82;1.70;;;;;;;;;;4989191;28;95390;-82
2023/08/27 00:02:41;;;;;;;5.53;2.17;;;;;;;;;;5002562;28;92390;-83
2023/08/27 00:05:09;;;;;;;3.70;1.80;;;;;;;;;;5004166;28;93613;-82
2023/08/27 00:07:35;;;;;;;;;;;;;;;;;;4988679;28;92818;-83
2023/08/27 00:10:02;;;;;;;3.97;1.90;;;;;;;;;;4995158;28;109123;-82
2023/08/27 00:12:29;;;;;;;4.90;2.10;;;;;;;;;;4981618;28;94167;-82
2023/08/27 00:14:55;;;;;;;5.05;2.30;;;;;;;;;;4995542;28;92515;-82
2023/08/27 00:17:22;;;;;;;5.65;2.30;;;;;;;;;;4994377;28;94116;-82
2023/08/27 00:19:48;;;;;;;6.28;2.70;;;;;;;;;;4993769;28;93168;-82
2023/08/27 00:22:15;;;;;;;6.47;2.28;;;;;;;;;;4993952;28;92461;-83
2023/08/27 00:24:42;;;;;;;5.95;2.20;;;;;;;;;;4988020;28;95029;-83
2023/08/27 00:27:08;;;;;;;6.70;2.63;;;;;;;;;;4996160;28;94066;-83
2023/08/27 00:29:35;;;;;;;6.65;2.95;;;;;;;;;;4993618;28;94800;-84
2023/08/27 00:32:01;;;;;;;4.95;2.67;;;;;;;;;;4991974;28;92497;-83
2023/08/27 00:34:45;;;;;;;4.15;1.83;;;;;;;;;;4977400;28;92693;-82
2023/08/27 00:37:11;;;;;;;5.57;2.20;;;;;;;;;;4968418;28;95609;-82
2023/08/27 00:39:38;;;;;;;4.50;1.80;;;;;;;;;;4968463;28;96229;-82
2023/08/27 00:42:05;;;;;;;5.55;2.00;;;;;;;;;;4975741;28;91815;-82
2023/08/27 00:44:33;;;;;;;6.00;2.00;;;;;;;;;;4992880;28;92434;-82
2023/08/27 00:47:00;;;;;;;4.95;2.13;;;;;;;;;;4982517;28;95919;-82
2023/08/27 00:49:27;;;;;;;;;;;;;;;;;;4994426;28;95274;-82
2023/08/27 00:51:53;;;;;;;4.45;1.95;;;;;;;;;;4992814;28;93162;-83
2023/08/27 00:54:20;;;;;;;4.38;1.92;;;;;;;;;;4977856;28;92570;-82
2023/08/27 00:56:47;;;;;;;4.82;1.90;;;;;;;;;;4975412;28;95466;-82
2023/08/27 00:59:14;;;;;;;4.50;2.33;;;;;;;;;;5001419;28;93211;-82
2023/08/27 01:01:40;;;;;;;5.75;2.20;;;;;;;;;;4978250;28;92760;-82
2023/08/27 01:04:07;;;;;;;5.60;2.08;;;;;;;;;;4992022;28;92798;-82
2023/08/27 01:06:34;;;;;;;5.57;2.20;;;;;;;;;;4979590;28;94981;-82
2023/08/27 01:09:10;;;;;;;6.65;2.45;;;;;;;;;;4985540;28;93044;-82
2023/08/27 01:11:52;;;;;;;4.35;2.22;;;;;;;;;;4981825;28;92894;-82
2023/08/27 01:14:19;;;;;;;4.78;2.20;;;;;;;;;;4988052;28;95167;-82
2023/08/27 01:16:47;;;;;;;5.20;1.80;;;;;;;;;;4975252;28;97676;-82
2023/08/27 01:19:14;;;;;;;7.43;2.38;;;;;;;;;;4984624;28;95724;-82
2023/08/27 01:21:41;;;;;;;4.97;2.22;;;;;;;;;;4985303;28;92497;-82
2023/08/27 01:24:08;;;;;;;5.03;1.92;;;;;;;;;;5005231;28;93183;-81
2023/08/27 01:26:42;;;;;;;5.88;2.20;;;;;;;;;;4988759;28;94085;-82
2023/08/27 01:29:10;;;;;;;4.57;2.03;;;;;;;;;;4962691;28;92481;-83
2023/08/27 01:31:39;;;;;;;3.55;1.90;;;;;;;;;;4984176;28;95597;-82
2023/08/27 01:34:08;;;;;;;4.93;1.90;;;;;;;;;;4994240;28;95619;-81
2023/08/27 01:36:35;;;;;;;5.30;2.60;;;;;;;;;;4991496;28;95372;-82
2023/08/27 01:39:04;;;;;;;4.70;1.90;;;;;;;;;;4984168;28;95590;-82
2023/08/27 01:41:30;;;;;;;4.78;2.20;;;;;;;;;;4975451;28;92835;-82
2023/08/27 01:43:57;;;;;;;3.88;1.80;;;;;;;;;;4991729;28;94083;-82
2023/08/27 01:46:24;;;;;;;4.65;2.28;;;;;;;;;;4973245;28;93836;-82
2023/08/27 01:48:50;;;;;;;4.07;2.03;;;;;;;;;;4961497;28;92667;-82
2023/08/27 01:51:17;;;;;;;6.28;2.40;;;;;;;;;;4991411;28;92967;-81
2023/08/27 01:53:44;;;;;;;3.78;1.70;;;;;;;;;;4979251;28;94184;-81
2023/08/27 01:56:10;;;;;;;5.30;2.22;;;;;;;;;;4991106;28;91672;-82
2023/08/27 01:58:37;;;;;;;6.00;2.20;;;;;;;;;;4991447;28;93282;-82
2023/08/27 02:01:03;;;;;;;6.07;2.35;;;;;;;;;;4978659;28;92613;-82
2023/08/27 02:03:30;;;;;;;4.78;2.10;;;;;;;;;;4989268;28;95601;-82
2023/08/27 02:05:57;;;;;;;5.30;2.20;;;;;;;;;;4977875;28;95776;-82
2023/08/27 02:08:24;;;;;;;5.25;2.20;;;;;;;;;;4976555;28;93066;-81
2023/08/27 02:10:50;;;;;;;6.60;2.05;;;;;;;;;;4961485;28;96214;-81
2023/08/27 02:13:17;;;;;;;5.03;2.00;;;;;;;;;;4959348;28;94362;-81
2023/08/27 02:15:44;;;;;;;4.93;2.22;;;;;;;;;;4981543;28;92550;-81
2023/08/27 02:18:10;;;;;;;4.30;2.00;;;;;;;;;;4971104;28;96035;-81
2023/08/27 02:20:37;;;;;;;5.03;1.75;;;;;;;;;;4990468;28;92374;-81
2023/08/27 02:23:04;;;;;;;5.20;2.03;;;;;;;;;;4974190;28;93873;-81
2023/08/27 02:25:31;;;;;;;3.63;1.90;;;;;;;;;;4979959;28;96063;-80
2023/08/27 02:27:58;;;;;;;7.80;1.65;;;;;;;;;;4988718;28;95428;-82
2023/08/27 02:30:25;;;;;;;5.22;1.60;;;;;;;;;;4975976;28;97862;-82
2023/08/27 02:32:52;;;;;;;8.93;2.00;;;;;;;;;;4971307;28;95845;-81
2023/08/27 02:35:19;;;;;;;5.80;1.90;;;;;;;;;;4972699;28;92921;-82
2023/08/27 02:37:46;;;;;;;5.78;1.90;;;;;;;;;;4967012;28;95975;-81
2023/08/27 02:40:15;;;;;;;3.53;1.65;;;;;;;;;;4985945;28;92660;-81
2023/08/27 02:42:43;;;;;;;7.05;1.90;;;;;;;;;;4968607;28;95683;-82
2023/08/27 02:45:10;;;;;;;4.60;1.92;;;;;;;;;;4972441;28;95108;-81
2023/08/27 02:47:37;;;;;;;4.05;1.50;;;;;;;;;;4970231;28;92478;-81
2023/08/27 02:50:04;;;;;;;6.05;2.00;;;;;;;;;;4990361;28;93330;-82
2023/08/27 02:52:30;;;;;;;3.67;1.70;;;;;;;;;;4984667;28;95705;-82
2023/08/27 02:54:57;;;;;;;3.38;1.50;;;;;;;;;;4980859;28;92893;-82
2023/08/27 02:57:23;;;;;;;3.53;1.75;;;;;;;;;;4989625;28;92749;-83
2023/08/27 02:59:50;;;;;;;2.95;1.55;;;;;;;;;;4984027;28;96413;-82
2023/08/27 03:02:16;;;;;;;3.15;1.67;;;;;;;;;;4974376;28;95126;-81
2023/08/27 03:04:43;;;;;;;3.08;1.40;;;;;;;;;;4982062;28;95629;-82
2023/08/27 03:07:09;;;;;;;5.22;1.75;;;;;;;;;;4989934;28;92908;-83
2023/08/27 03:09:36;;;;;;;4.65;1.70;;;;;;;;;;4978742;28;95656;-82
2023/08/27 03:12:02;;;;;;;4.53;1.70;;;;;;;;;;4961155;28;95834;-82
2023/08/27 03:14:29;;;;;;;4.32;1.80;;;;;;;;;;4973351;28;92615;-82
2023/08/27 03:16:56;;;;;;;4.05;1.70;;;;;;;;;;4980172;28;96285;-82
2023/08/27 03:19:22;;;;;;;5.07;1.40;;;;;;;;;;4980740;28;94237;-82
2023/08/27 03:21:49;;;;;;;4.28;1.77;;;;;;;;;;5000433;28;92514;-83
2023/08/27 03:24:15;;;;;;;3.00;1.50;;;;;;;;;;4982612;28;95660;-81
2023/08/27 03:26:42;;;;;;;3.45;1.60;;;;;;;;;;4972561;28;92828;-84
2023/08/27 03:29:08;;;;;;;4.25;1.90;;;;;;;;;;4977032;28;95708;-84
2023/08/27 03:31:35;;;;;;;6.03;2.30;;;;;;;;;;5002154;28;92337;-82
2023/08/27 03:34:02;;;;;;;4.95;1.90;;;;;;;;;;5005069;28;92083;-84
2023/08/27 03:36:28;;;;;;;5.10;1.88;;;;;;;;;;4987066;28;93878;-83
2023/08/27 03:38:55;;;;;;;4.68;1.92;;;;;;;;;;4983175;28;94818;-83
2023/08/27 03:41:21;;;;;;;5.13;1.90;;;;;;;;;;4973213;28;94842;-83
2023/08/27 03:43:48;;;;;;;5.05;1.95;;;;;;;;;;4959338;28;98655;-83
2023/08/27 03:46:15;;;;;;;4.57;1.70;;;;;;;;;;4989357;28;92863;-84
2023/08/27 03:48:41;;;;;;;6.07;1.90;;;;;;;;;;4980813;28;94566;-83
2023/08/27 03:51:08;;;;;;;4.80;2.03;;;;;;;;;;4970704;28;94578;-83
2023/08/27 03:53:36;;;;;;;5.03;1.80;;;;;;;;;;4976457;28;92588;-83
2023/08/27 03:56:03;;;;;;;4.93;1.70;;;;;;;;;;4960119;28;94373;-83
2023/08/27 03:58:31;;;;;;;4.50;1.90;;;;;;;;;;4987050;28;93894;-86
2023/08/27 04:00:58;;;;;;;;;;;;;;;;;;4997087;28;92450;-82
2023/08/27 04:03:24;;;;;;;2.72;1.38;;;;;;;;;;4993187;28;105244;-83
2023/08/27 04:05:51;;;;;;;6.63;2.40;;;;;;;;;;4987661;28;94904;-83
2023/08/27 04:08:18;;;;;;;4.93;2.05;;;;;;;;;;4988017;28;95592;-83
2023/08/27 04:10:45;;;;;;;;;;;;;;;;;;4984771;28;95452;-83
2023/08/27 04:13:11;;;;;;;5.65;1.75;;;;;;;;;;4975010;28;92601;-83
2023/08/27 04:15:38;;;;;;;4.43;1.80;;;;;;;;;;4990686;28;92725;-83
2023/08/27 04:18:05;;;;;;;5.00;1.90;;;;;;;;;;4977429;28;94462;-82
2023/08/27 04:20:31;;;;;;;6.50;1.73;;;;;;;;;;4983937;28;93069;-83
2023/08/27 04:22:58;;;;;;;5.22;1.90;;;;;;;;;;4993003;28;92319;-83
2023/08/27 04:25:25;;;;;;;4.45;1.60;;;;;;;;;;4994735;28;93051;-84
2023/08/27 04:27:51;;;;;;;6.28;1.90;;;;;;;;;;4958678;28;95888;-83
2023/08/27 04:30:18;;;;;;;4.20;1.80;;;;;;;;;;4986085;28;96670;-83
2023/08/27 04:32:45;;;;;;;7.07;1.85;;;;;;;;;;4988709;28;92445;-82
2023/08/27 04:35:11;;;;;;;7.88;2.00;;;;;;;;;;4988373;28;92915;-82
2023/08/27 04:37:38;;;;;;;6.20;1.80;;;;;;;;;;4977385;28;94343;-83
2023/08/27 04:40:05;;;;;;;5.22;2.20;;;;;;;;;;4974222;28;92878;-82
2023/08/27 04:42:32;;;;;;;3.85;1.67;;;;;;;;;;4970885;28;94199;-82
2023/08/27 04:44:58;;;;;;;5.03;1.83;;;;;;;;;;4966915;28;95907;-82
2023/08/27 04:47:25;;;;;;;5.35;2.00;;;;;;;;;;4969878;28;92189;-82
2023/08/27 04:49:52;;;;;;;4.70;1.70;;;;;;;;;;4975902;28;93594;-82
2023/08/27 04:52:19;;;;;;;4.97;1.60;;;;;;;;;;4962785;28;92489;-83
2023/08/27 04:54:57;;;;;;;4.22;1.63;;;;;;;;;;4986556;28;95292;-83
2023/08/27 04:57:25;;;;;;;3.63;1.48;;;;;;;;;;4989665;28;94263;-82
2023/08/27 04:59:52;;;;;;;;;;;;;;;;;;4984895;28;92930;-82
2023/08/27 05:02:19;;;;;;;8.32;1.63;;;;;;;;;;4978209;28;92502;-82
2023/08/27 05:04:45;;;;;;;4.22;1.60;;;;;;;;;;4990444;28;93265;-82
2023/08/27 05:07:12;;;;;;;;;;;;;;;;;;4975199;28;93029;-82
2023/08/27 05:09:39;;;;;;;6.18;1.70;;;;;;;;;;4991342;28;94704;-82
2023/08/27 05:12:06;;;;;;;3.50;1.40;;;;;;;;;;4976134;28;92039;-82
2023/08/27 05:14:32;;;;;;;4.07;1.63;;;;;;;;;;4973813;28;94807;-83
2023/08/27 05:17:00;;;;;;;6.93;1.50;;;;;;;;;;4959990;28;95301;-82
2023/08/27 05:19:27;;;;;;;3.08;1.38;;;;;;;;;;4974751;28;95137;-83
2023/08/27 05:21:54;;;;;;;3.53;1.50;;;;;;;;;;4994020;28;95098;-82
2023/08/27 05:24:21;;;;;;;4.60;1.60;;;;;;;;;;4964924;28;95727;-83
2023/08/27 05:26:47;;;;;;;4.97;1.50;;;;;;;;;;4978970;28;92512;-82
2023/08/27 05:29:14;;;;;;;4.22;1.65;;;;;;;;;;4974054;28;95858;-82
2023/08/27 05:31:40;;;;;;;4.63;1.70;;;;;;;;;;4982064;28;96034;-82
2023/08/27 05:34:07;;;;;;;4.53;1.60;;;;;;;;;;4990487;28;92995;-82
2023/08/27 05:36:33;;;;;;;3.10;1.40;;;;;;;;;;4964159;28;95340;-82
2023/08/27 05:39:00;;;;;;;5.82;1.73;;;;;;;;;;4956436;28;92506;-82
2023/08/27 05:41:28;;;;;;;3.38;1.40;;;;;;;;;;4972343;28;94467;-82
2023/08/27 05:43:55;;;;;;;5.47;1.50;;;;;;;;;;4968979;28;97355;-82
2023/08/27 05:46:22;;;;;;;3.53;1.30;;;;;;;;;;4993109;28;93283;-83
2023/08/27 05:48:48;;;;;;;2.50;1.40;;;;;;;;;;4990770;28;93487;-83
2023/08/27 05:51:15;;;;;;;3.42;1.42;;;;;;;;;;4977516;28;96000;-82
2023/08/27 05:53:42;;;;;;;3.80;1.50;;;;;;;;;;4993851;28;92548;-83
2023/08/27 05:56:09;;;;;;;3.42;1.25;;;;;;;;;;4980454;28;95616;-83
2023/08/27 05:58:35;;;;;;;2.75;1.30;;;;;;;;;;4978989;28;93045;-83
2023/08/27 06:01:02;;;;;;;2.75;1.20;;;;;;;;;;4981282;28;93973;-83
2023/08/27 06:03:29;;;;;;;4.63;1.60;;;;;;;;;;4972482;28;93089;-83
2023/08/27 06:05:56;;;;;;;5.35;1.40;;;;;;;;;;4989528;28;93622;-83
2023/08/27 06:08:23;;;;;;;5.32;2.00;;;;;;;;;;4972214;28;96560;-83
2023/08/27 06:10:49;;;;;;;4.50;1.50;;;;;;;;;;4974104;28;95734;-83
2023/08/27 06:13:16;;;;;;;4.93;1.80;;;;;;;;;;4976323;28;92432;-83
2023/08/27 06:15:43;;;;;;;3.35;1.30;;;;;;;;;;4975338;28;94363;-83
2023/08/27 06:18:09;;;;;;;4.45;1.40;;;;;;;;;;4973287;28;92532;-83
2023/08/27 06:20:36;;;;;;;4.38;1.45;;;;;;;;;;4997095;28;94139;-83
2023/08/27 06:23:06;;;;;;;4.10;1.60;;;;;;;;;;4991584;28;93751;-83
2023/08/27 06:25:33;;;;;;;7.15;2.08;;;;;;;;;;4973734;28;91874;-81
2023/08/27 06:27:59;;;;;;;;;;;;;;;;;;4990895;28;92810;-82
2023/08/27 06:30:26;;;;;;;3.95;1.50;;;;;;;;;;4971240;28;111726;-82
2023/08/27 06:32:54;;;;;;;3.30;1.42;;;;;;;;;;4993506;28;94882;-82
2023/08/27 06:35:22;;;;;;;4.68;1.63;;;;;;;;;;4981953;28;97512;-81
2023/08/27 06:37:48;;;;;;;3.53;1.40;;;;;;;;;;4983658;28;93291;-81
2023/08/27 06:40:15;;;;;;;6.05;1.90;;;;;;;;;;4993254;28;93131;-81
2023/08/27 06:42:42;;;;;;;4.45;1.90;;;;;;;;;;4975930;28;95725;-81
2023/08/27 06:45:09;;;;;;;5.05;1.75;;;;;;;;;;4961237;28;94207;-82
2023/08/27 06:47:37;;;;;;;4.38;1.75;;;;;;;;;;4967760;28;94898;-81
2023/08/27 06:50:04;;;;;;;4.30;1.73;;;;;;;;;;4960525;28;95180;-81
2023/08/27 06:52:32;;;;;;;5.95;1.80;;;;;;;;;;4972654;28;92546;-81
2023/08/27 06:54:59;;;;;;;5.20;1.55;;;;;;;;;;4974419;28;95278;-81
2023/08/27 06:57:26;;;;;;;3.75;1.40;;;;;;;;;;5002284;28;95727;-83
2023/08/27 06:59:53;;;;;;;5.80;1.52;;;;;;;;;;4972083;28;96756;-84
2023/08/27 07:02:19;;;;;;;4.53;1.50;;;;;;;;;;4983354;28;94803;-83
2023/08/27 07:04:46;;;;;;;5.55;1.75;;;;;;;;;;4981093;28;92485;-82
2023/08/27 07:07:12;;;;;;;4.55;1.73;;;;;;;;;;4975443;28;94113;-83
2023/08/27 07:09:40;;;;;;;4.78;1.83;;;;;;;;;;4971978;28;94096;-82
2023/08/27 07:12:07;;;;;;;5.50;1.65;;;;;;;;;;4989956;28;92792;-82
2023/08/27 07:14:34;;;;;;;5.63;1.60;;;;;;;;;;4989356;28;93675;-82
2023/08/27 07:17:00;;;;;;;6.22;2.45;;;;;;;;;;4989301;28;94252;-82
2023/08/27 07:19:27;;;;;;;9.35;3.60;;;;;;;;;;4975333;28;92625;-80
2023/08/27 07:21:57;;;;;;;7.63;3.20;;;;;;;;;;4977136;28;98001;-80
2023/08/27 07:24:23;;;;;;;8.52;3.70;;;;;;;;;;4973789;28;92561;-80
2023/08/27 07:26:50;;;;;;;6.82;3.00;;;;;;;;;;4990775;28;92528;-82
2023/08/27 07:29:17;;;;;;;9.52;3.17;;;;;;;;;;4956143;28;95830;-82
2023/08/27 07:31:45;;;;;;;9.40;3.15;;;;;;;;;;4972662;28;92603;-81
2023/08/27 07:34:12;;;;;;;10.52;4.90;;;;;;;;;;4972839;28;95929;-83
2023/08/27 07:36:38;;;;;;;6.88;3.78;;;;;;;;;;4961094;28;96026;-82
2023/08/27 07:39:05;;;;;;;9.25;5.13;;;;;;;;;;4975123;28;91827;-82
2023/08/27 07:41:32;;;;;;;10.52;5.95;;;;;;;;;;4984489;28;94991;-82
2023/08/27 07:43:59;;;;;;;12.27;7.05;;;;;;;;;;4961592;28;93717;-82
2023/08/27 07:46:25;;;;;;;11.00;6.60;;;;;;;;;;4967291;28;95203;-83
2023/08/27 07:48:52;;;;;;;11.60;5.15;;;;;;;;;;4981828;28;96025;-83
2023/08/27 07:51:19;;;;;;;9.60;4.57;;;;;;;;;;4989474;28;92274;-83
2023/08/27 07:53:45;;;;;;;14.70;7.15;;;;;;;;;;4997448;28;92378;-81
2023/08/27 07:56:12;;;;;;;13.38;6.70;;;;;;;;;;4971549;28;96143;-84
2023/08/27 07:58:39;;;;;;;12.48;7.10;;;;;;;;;;4977405;28;92411;-83
2023/08/27 08:01:06;;;;;;;13.68;7.78;;;;;;;;;;5004705;28;92955;-82
2023/08/27 08:03:35;;;;;;;13.70;7.43;;;;;;;;;;5010893;28;91746;-81
2023/08/27 08:06:03;;;;;;;11.55;7.38;;;;;;;;;;5001761;28;92611;-82
2023/08/27 08:08:30;;;;;;;10.85;5.70;;;;;;;;;;4961674;28;96143;-82
2023/08/27 08:10:57;;;;;;;12.60;7.55;;;;;;;;;;4993978;28;94839;-81
2023/08/27 08:13:24;;;;;;;13.30;7.45;;;;;;;;;;4992883;28;95420;-81
2023/08/27 08:15:51;;;;;;;11.95;7.00;;;;;;;;;;4987834;28;93092;-81
2023/08/27 08:18:18;;;;;;;11.50;6.95;;;;;;;;;;4981129;28;92385;-81
2023/08/27 08:20:45;;;;;;;12.77;6.28;;;;;;;;;;4983551;28;92863;-81
2023/08/27 08:23:12;;;;;;;12.10;6.82;;;;;;;;;;4973322;28;93529;-81
2023/08/27 08:25:41;;;;;;;12.20;7.20;;;;;;;;;;4970541;28;93545;-81
2023/08/27 08:28:08;;;;;;;12.82;7.43;;;;;;;;;;4970631;28;95160;-81
2023/08/27 08:30:34;;;;;;;14.23;7.15;;;;;;;;;;4988284;28;94464;-82
2023/08/27 08:33:01;;;;;;;12.07;8.00;;;;;;;;;;4967311;28;95527;-81
2023/08/27 08:35:28;;;;;;;11.30;5.93;;;;;;;;;;4965912;28;98497;-81
2023/08/27 08:37:54;;;;;;;12.57;7.57;;;;;;;;;;4972273;28;93304;-81
2023/08/27 08:40:22;;;;;;;10.07;5.70;;;;;;;;;;4957100;28;93795;-81
2023/08/27 08:43:03;;;;;;;12.00;7.13;;;;;;;;;;4973108;28;93215;-81
2023/08/27 08:45:40;;;;;;;15.70;8.45;;;;;;;;;;4986887;28;93136;-83
2023/08/27 08:48:10;;;;;;;13.10;7.10;;;;;;;;;;4985078;28;93464;-81
2023/08/27 08:50:40;;;;;;;10.90;4.72;;;;;;;;;;4990730;28;92523;-81
2023/08/27 08:53:16;;;;;;;12.27;4.60;;;;;;;;;;4992583;28;92821;-80
2023/08/27 08:55:45;;;;;;;12.13;4.32;;;;;;;;;;4992184;28;93186;-80
2023/08/27 08:58:12;;;;;;;8.82;4.20;;;;;;;;;;4973785;28;93083;-80
2023/08/27 09:00:39;;;;;;;8.65;3.90;;;;;;;;;;4990203;28;95119;-81
2023/08/27 09:03:05;;;;;;;7.45;4.07;;;;;;;;;;4989189;28;93603;-82
2023/08/27 09:05:33;;;;;;;9.52;3.83;;;;;;;;;;4971705;28;92778;-81
2023/08/27 09:07:59;;;;;;;7.18;3.65;;;;;;;;;;4993749;28;92929;-81
2023/08/27 09:10:27;;;;;;;;;;;;;;;;;;4970006;28;93078;-82
2023/08/27 09:12:57;;;;;;;5.85;3.25;;;;;;;;;;4971967;28;93900;-81
2023/08/27 09:15:24;;;;;;;5.80;3.40;;;;;;;;;;4972684;28;93324;-81
2023/08/27 09:17:50;;;;;;;7.25;3.40;;;;;;;;;;4958461;28;91824;-82
2023/08/27 09:20:17;;;;;;;7.20;3.40;;;;;;;;;;4976138;28;93136;-81
2023/08/27 09:22:44;;;;;;;6.07;3.30;;;;;;;;;;4973461;28;93008;-81
2023/08/27 09:25:11;;;;;;;6.88;3.55;;;;;;;;;;4959341;28;94983;-81
2023/08/27 09:27:37;;;;;;;6.25;3.22;;;;;;;;;;4965980;28;95125;-81
2023/08/27 09:30:04;;;;;;;6.43;3.72;;;;;;;;;;4973711;28;93674;-81
2023/08/27 09:32:31;;;;;;;6.65;3.40;;;;;;;;;;4971597;28;92804;-81
2023/08/27 09:34:59;;;;;;;6.90;3.20;;;;;;;;;;4971330;28;93112;-81
2023/08/27 09:37:27;;;;;;;6.55;3.25;;;;;;;;;;4971325;28;92418;-82
2023/08/27 09:39:54;;;;;;;6.45;3.22;;;;;;;;;;4969733;28;93006;-82
2023/08/27 09:42:21;;;;;;;6.65;3.30;;;;;;;;;;4971311;28;92566;-82
2023/08/27 09:44:54;;;;;;;5.22;3.15;;;;;;;;;;4971213;28;92450;-82
2023/08/27 09:47:29;;;;;;;5.55;3.40;;;;;;;;;;4969524;28;95387;-82
2023/08/27 09:49:56;;;;;;;6.20;3.45;;;;;;;;;;4969791;28;95344;-82
2023/08/27 09:52:24;;;;;;;6.00;3.17;;;;;;;;;;4972807;28;92583;-82
2023/08/27 09:54:51;;;;;;;5.65;2.92;;;;;;;;;;4971658;28;93228;-82
2023/08/27 09:57:18;;;;;;;6.05;3.45;;;;;;;;;;4969946;28;92548;-83
2023/08/27 09:59:46;;;;;;;6.47;3.45;;;;;;;;;;4978746;28;92501;-82
2023/08/27 10:02:18;;;;;;;7.53;3.13;;;;;;;;;;4983065;28;92444;-82
2023/08/27 10:04:49;;;;;;;6.38;3.53;;;;;;;;;;4969977;28;93033;-82
2023/08/27 10:07:16;;;;;;;5.43;3.33;;;;;;;;;;4969801;28;93938;-82
2023/08/27 10:09:47;;;;;;;5.63;3.25;;;;;;;;;;4967984;28;94409;-82
2023/08/27 10:12:15;;;;;;;5.22;3.05;;;;;;;;;;4970889;28;92417;-81
2023/08/27 10:14:43;;;;;;;5.38;2.70;;;;;;;;;;4972887;28;94831;-82
2023/08/27 10:17:10;;;;;;;5.32;2.80;;;;;;;;;;4969542;28;92602;-82
2023/08/27 10:19:37;;;;;;;5.38;2.65;;;;;;;;;;4969790;28;92438;-81
2023/08/27 10:22:04;;;;;;;5.15;2.90;;;;;;;;;;4978411;28;94509;-82
2023/08/27 10:24:32;;;;;;;4.97;2.65;;;;;;;;;;4970713;28;92670;-82
2023/08/27 10:27:03;;;;;;;5.07;2.70;;;;;;;;;;4970755;28;93145;-82
2023/08/27 10:29:30;;;;;;;4.57;2.50;;;;;;;;;;4970762;28;93112;-82
2023/08/27 10:31:57;;;;;;;5.22;2.50;;;;;;;;;;4971080;28;92034;-82
2023/08/27 10:34:27;;;;;;;4.05;2.53;;;;;;;;;;4973784;28;92541;-82
2023/08/27 10:36:55;;;;;;;4.40;2.40;;;;;;;;;;4970708;28;92442;-82
2023/08/27 10:39:26;;;;;;;4.63;2.60;;;;;;;;;;4968872;28;95222;-82
2023/08/27 10:41:53;;;;;;;4.00;2.30;;;;;;;;;;4969024;28;93293;-82
2023/08/27 10:44:20;;;;;;;4.05;2.22;;;;;;;;;;4968814;28;92559;-82
2023/08/27 10:47:05;;;;;;;4.93;2.40;;;;;;;;;;4968773;28;92941;-82
2023/08/27 10:49:36;;;;;;;4.60;2.30;;;;;;;;;;4970856;28;93209;-82
2023/08/27 10:52:13;;;;;;;4.15;2.33;;;;;;;;;;4969896;28;92451;-82
2023/08/27 10:54:40;;;;;;;4.25;2.20;;;;;;;;;;4963750;28;93846;-82
2023/08/27 10:57:22;;;;;;;3.20;2.00;;;;;;;;;;4972058;28;92301;-82
2023/08/27 10:59:49;;;;;;;4.88;2.40;;;;;;;;;;4970540;28;93098;-81
2023/08/27 11:02:16;;;;;;;5.20;2.50;;;;;;;;;;4969611;28;93329;-82
2023/08/27 11:04:47;;;;;;;4.00;2.30;;;;;;;;;;4969492;28;95039;-82
2023/08/27 11:07:17;;;;;;;4.38;2.08;;;;;;;;;;4972238;28;95258;-82
2023/08/27 11:09:46;;;;;;;4.82;2.30;;;;;;;;;;4979085;28;93772;-81
2023/08/27 11:12:24;;;;;;;3.50;1.80;;;;;;;;;;4977873;28;92589;-81
2023/08/27 11:14:50;;;;;;;3.53;1.98;;;;;;;;;;4973667;28;95303;-81
2023/08/27 11:17:27;;;;;;;3.55;2.03;;;;;;;;;;4974766;28;93131;-81
2023/08/27 11:19:57;;;;;;;4.10;1.83;;;;;;;;;;4996811;28;92495;-82
2023/08/27 11:22:24;;;;;;;4.97;2.03;;;;;;;;;;4997658;28;92534;-82
2023/08/27 11:24:57;;;;;;;3.42;1.80;;;;;;;;;;4989026;28;93186;-82
2023/08/27 11:27:25;;;;;;;3.78;1.70;;;;;;;;;;4971612;28;95884;-82
2023/08/27 11:29:52;;;;;;;3.88;1.73;;;;;;;;;;4987677;28;95893;-82
2023/08/27 11:32:20;;;;;;;3.35;1.60;;;;;;;;;;4989780;28;92424;-82
2023/08/27 11:34:51;;;;;;;3.05;1.83;;;;;;;;;;4972050;28;92788;-83
2023/08/27 11:37:20;;;;;;;2.50;1.60;;;;;;;;;;4990839;28;93377;-82
2023/08/27 11:39:47;;;;;;;3.17;1.63;;;;;;;;;;4990108;28;92740;-82
2023/08/27 11:42:14;;;;;;;3.38;1.60;;;;;;;;;;4974399;28;94507;-83
2023/08/27 11:44:50;;;;;;;3.05;1.45;;;;;;;;;;4990272;28;92423;-83
2023/08/27 11:47:18;;;;;;;2.25;1.30;;;;;;;;;;4991515;28;94008;-83
2023/08/27 11:49:44;;;;;;;3.72;1.58;;;;;;;;;;4990299;28;93629;-83
2023/08/27 11:52:13;;;;;;;3.08;1.40;;;;;;;;;;4990166;28;92770;-82
2023/08/27 11:54:40;;;;;;;1.52;1.10;;;;;;;;;;4990141;28;94907;-82
2023/08/27 11:57:07;;;;;;;1.90;1.25;;;;;;;;;;4990261;28;93653;-85
2023/08/27 11:59:34;;;;;;;1.70;1.10;;;;;;;;;;4991182;28;92462;-83
2023/08/27 12:02:02;;;;;;;2.65;1.35;;;;;;;;;;4990098;28;93994;-83
2023/08/27 12:04:32;;;;;;;1.70;1.10;;;;;;;;;;4993962;28;93209;-83
2023/08/27 12:07:00;;;;;;;2.35;1.10;;;;;;;;;;4988317;28;92896;-84
2023/08/27 12:09:28;;;;;;;3.35;1.48;;;;;;;;;;5003869;28;92950;-84
2023/08/27 12:12:01;;;;;;;1.80;1.30;;;;;;;;;;4979314;28;92274;-83
2023/08/27 12:14:29;;;;;;;2.80;1.15;;;;;;;;;;4996911;28;92399;-83
2023/08/27 12:17:03;;;;;;;2.17;1.10;;;;;;;;;;4996372;28;94165;-82
2023/08/27 12:19:31;;;;;;;2.10;1.10;;;;;;;;;;4995333;28;94859;-83
2023/08/27 12:21:57;;;;;;;1.90;1.13;;;;;;;;;;5003255;28;96169;-83
2023/08/27 12:24:31;;;;;;;3.25;1.10;;;;;;;;;;4977504;28;96047;-83
2023/08/27 12:27:02;;;;;;;1.77;1.10;;;;;;;;;;4999742;28;92446;-83
2023/08/27 12:29:30;;;;;;;2.28;1.10;;;;;;;;;;4997575;28;93083;-83
2023/08/27 12:31:58;;;;;;;2.30;1.20;;;;;;;;;;4996343;28;92631;-83
2023/08/27 12:34:31;;;;;;;2.08;1.05;;;;;;;;;;4978467;28;95405;-83
2023/08/27 12:36:58;;;;;;;2.20;1.05;;;;;;;;;;4978893;28;95134;-83
2023/08/27 12:39:24;;;;;;;1.80;0.95;;;;;;;;;;4996865;28;92455;-83
2023/08/27 12:41:51;;;;;;;2.17;0.90;;;;;;;;;;4983041;28;92736;-83
2023/08/27 12:44:18;;;;;;;2.40;1.00;;;;;;;;;;4992077;28;97217;-83
2023/08/27 12:46:45;;;;;;;2.35;1.10;;;;;;;;;;4986623;28;92838;-83
2023/08/27 12:49:11;;;;;;;2.30;1.05;;;;;;;;;;4977936;28;93159;-84
2023/08/27 12:51:38;;;;;;;4.72;1.10;;;;;;;;;;4984702;28;92538;-84
2023/08/27 12:54:04;;;;;;;2.10;0.95;;;;;;;;;;4998047;28;94799;-86
2023/08/27 12:56:33;;;;;;;2.33;0.88;;;;;;;;;;4979921;28;95775;-85
2023/08/27 12:59:01;;;;;;;1.33;0.82;;;;;;;;;;4998191;28;92742;-83
2023/08/27 13:01:28;;;;;;;3.53;0.98;;;;;;;;;;4994620;28;92810;-85
2023/08/27 13:03:56;;;;;;;3.75;1.17;;;;;;;;;;4997251;28;93026;-84
2023/08/27 13:06:23;;;;;;;1.65;0.80;;;;;;;;;;4967174;28;92439;-86
2023/08/27 13:08:50;;;;;;;2.13;0.90;;;;;;;;;;4972973;28;95435;-86
2023/08/27 13:11:17;;;;;;;2.75;0.90;;;;;;;;;;4983420;28;92629;-85
2023/08/27 13:13:44;;;;;;;2.35;0.80;;;;;;;;;;4948126;28;95671;-85
2023/08/27 13:16:11;;;;;;;1.77;0.93;;;;;;;;;;4979408;28;93604;-85
2023/08/27 13:18:38;;;;;;;2.58;0.88;;;;;;;;;;4996147;28;92509;-85
2023/08/27 13:21:04;;;;;;;1.98;0.90;;;;;;;;;;4994395;28;93467;-86
2023/08/27 13:23:31;;;;;;;2.97;0.95;;;;;;;;;;4993360;28;93912;-84
2023/08/27 13:25:58;;;;;;;2.03;1.00;;;;;;;;;;4993934;28;91886;-85
2023/08/27 13:28:24;;;;;;;1.75;1.00;;;;;;;;;;4977138;28;92957;-86
2023/08/27 13:30:51;;;;;;;3.58;1.15;;;;;;;;;;5004537;28;93803;-85
2023/08/27 13:33:17;;;;;;;1.85;0.95;;;;;;;;;;5003569;28;95138;-85
2023/08/27 13:35:44;;;;;;;2.05;0.90;;;;;;;;;;4996356;28;93504;-85
2023/08/27 13:38:10;;;;;;;1.42;0.90;;;;;;;;;;4989285;28;92661;-85
2023/08/27 13:40:38;;;;;;;2.70;0.88;;;;;;;;;;4985019;28;93573;-86
2023/08/27 13:43:06;;;;;;;1.98;0.90;;;;;;;;;;4961206;28;94095;-86
2023/08/27 13:45:33;;;;;;;1.98;1.00;;;;;;;;;;4976851;28;92492;-85
2023/08/27 13:48:00;;;;;;;;;;;;;;;;;;4994311;28;92830;-86
2023/08/27 13:50:29;;;;;;;1.45;0.90;;;;;;;;;;4977013;28;116665;-84
2023/08/27 13:52:55;;;;;;;3.17;1.10;;;;;;;;;;4984768;28;92605;-85
2023/08/27 13:55:22;;;;;;;2.40;1.10;;;;;;;;;;5002483;28;93062;-85
2023/08/27 13:57:49;;;;;;;1.40;1.00;;;;;;;;;;4991885;28;95578;-85
2023/08/27 14:00:15;;;;;;;2.33;1.17;;;;;;;;;;4975938;28;95007;-85
2023/08/27 14:02:42;;;;;;;1.92;1.05;;;;;;;;;;4974977;28;95850;-85
2023/08/27 14:05:09;;;;;;;1.88;0.85;;;;;;;;;;4977750;28;92973;-85
2023/08/27 14:07:36;;;;;;;2.58;1.10;;;;;;;;;;4983147;28;93585;-86
2023/08/27 14:10:03;;;;;;;2.00;1.02;;;;;;;;;;4995308;28;93342;-85
2023/08/27 14:12:30;;;;;;;1.80;1.00;;;;;;;;;;4987287;28;92849;-84
2023/08/27 14:14:57;;;;;;;2.22;0.95;;;;;;;;;;5000157;28;91812;-85
2023/08/27 14:17:23;;;;;;;4.20;0.90;;;;;;;;;;4977369;28;92504;-85
2023/08/27 14:19:50;;;;;;;2.38;0.93;;;;;;;;;;4988795;28;93115;-85
2023/08/27 14:22:17;;;;;;;1.42;0.80;;;;;;;;;;4995852;28;96528;-84
2023/08/27 14:24:43;;;;;;;6.07;1.92;;;;;;;;;;4973720;28;92686;-83
2023/08/27 14:27:10;;;;;;;6.25;2.20;;;;;;;;;;4957844;28;94312;-84
2023/08/27 14:29:37;;;;;;;4.13;1.80;;;;;;;;;;4972576;28;93446;-83
2023/08/27 14:32:04;;;;;;;4.35;1.80;;;;;;;;;;4991435;28;92992;-82
2023/08/27 14:34:30;;;;;;;4.50;1.70;;;;;;;;;;4976518;28;93750;-84
2023/08/27 14:36:57;;;;;;;5.65;1.90;;;;;;;;;;4991446;28;92437;-83
2023/08/27 14:39:25;;;;;;;6.05;1.80;;;;;;;;;;4973963;28;92665;-82
2023/08/27 14:41:52;;;;;;;4.20;1.98;;;;;;;;;;4990025;28;92447;-84
2023/08/27 14:44:19;;;;;;;4.45;1.52;;;;;;;;;;4990718;28;92494;-83
2023/08/27 14:46:45;;;;;;;6.72;1.90;;;;;;;;;;4997416;28;94954;-83